createdAt,value
2018-09-20T00:01:57.296Z,5.27
2018-09-20T00:04:25.957Z,5.40
2018-09-20T00:06:54.673Z,5.63
2018-09-20T00:09:23.380Z,5.50
2018-09-20T00:11:52.061Z,4.90
2018-09-20T00:14:20.720Z,5.93
2018-09-20T00:16:49.493Z,5.10
2018-09-20T00:19:18.189Z,5.70
2018-09-20T00:21:46.923Z,6.10
2018-09-20T00:24:15.778Z,5.87
2018-09-20T00:26:44.556Z,5.60
2018-09-20T00:29:19.452Z,5.30
2018-09-20T00:31:48.126Z,5.40
2018-09-20T00:34:16.850Z,6.00
2018-09-20T00:36:45.533Z,5.77
2018-09-20T00:39:14.804Z,5.50
2018-09-20T00:41:43.725Z,6.00
2018-09-20T00:44:12.876Z,5.50
2018-09-20T00:46:41.624Z,5.90
2018-09-20T00:49:10.396Z,5.23
2018-09-20T00:51:39.032Z,5.43
2018-09-20T00:54:07.840Z,5.20
2018-09-20T00:56:36.552Z,5.37
2018-09-20T00:59:05.345Z,5.83
2018-09-20T01:01:34.047Z,5.70
2018-09-20T01:04:02.665Z,5.07
2018-09-20T01:06:31.468Z,5.33
2018-09-20T01:09:00.097Z,5.87
2018-09-20T01:11:28.773Z,5.80
2018-09-20T01:14:03.649Z,5.40
2018-09-20T01:16:32.382Z,5.30
2018-09-20T01:19:01.080Z,6.10
2018-09-20T01:21:29.730Z,5.37
2018-09-20T01:23:58.426Z,5.07
2018-09-20T01:26:27.037Z,4.93
2018-09-20T01:28:55.941Z,5.27
2018-09-20T01:31:24.701Z,4.90
2018-09-20T01:33:53.358Z,5.07
2018-09-20T01:36:22.121Z,5.53
2018-09-20T01:38:50.756Z,5.10
2018-09-20T01:41:19.418Z,5.67
2018-09-20T01:43:48.075Z,4.87
2018-09-20T01:46:16.690Z,5.20
2018-09-20T01:48:45.401Z,5.70
2018-09-20T01:51:14.021Z,5.63
2018-09-20T01:53:42.619Z,5.43
2018-09-20T01:56:15.707Z,5.50
2018-09-20T01:58:45.676Z,5.10
2018-09-20T02:01:14.330Z,5.47
2018-09-20T02:03:42.974Z,4.97
2018-09-20T02:06:11.611Z,5.10
2018-09-20T02:08:40.213Z,5.20
2018-09-20T02:11:43.050Z,5.83
2018-09-20T02:14:11.477Z,5.90
2018-09-20T02:16:39.869Z,5.77
2018-09-20T02:19:08.314Z,4.83
2018-09-20T02:21:36.920Z,5.40
2018-09-20T02:24:05.574Z,5.60
2018-09-20T02:26:34.235Z,6.07
2018-09-20T02:29:02.870Z,5.80
2018-09-20T02:31:31.559Z,5.60
2018-09-20T02:34:00.406Z,5.50
2018-09-20T02:36:29.006Z,5.90
2018-09-20T02:38:57.731Z,5.23
2018-09-20T02:41:26.550Z,5.27
2018-09-20T02:43:55.251Z,5.57
2018-09-20T02:46:23.941Z,5.93
2018-09-20T02:48:52.612Z,6.10
2018-09-20T02:51:21.916Z,5.60
2018-09-20T02:53:50.869Z,5.87
2018-09-20T02:56:19.876Z,5.23
2018-09-20T02:58:48.572Z,5.40
2018-09-20T03:01:17.205Z,5.57
2018-09-20T03:03:45.863Z,4.90
2018-09-20T03:06:14.509Z,5.63
2018-09-20T03:08:43.216Z,5.87
2018-09-20T03:11:11.875Z,5.90
2018-09-20T03:13:40.530Z,5.60
2018-09-20T03:16:09.236Z,5.70
2018-09-20T03:18:37.939Z,5.50
2018-09-20T03:21:06.601Z,6.07
2018-09-20T03:23:35.265Z,5.73
2018-09-20T03:26:03.935Z,5.50
2018-09-20T03:28:32.614Z,5.90
2018-09-20T03:31:01.374Z,5.57
2018-09-20T03:33:30.089Z,6.33
2018-09-20T03:35:58.782Z,5.47
2018-09-20T03:38:27.412Z,6.23
2018-09-20T03:40:56.133Z,5.97
2018-09-20T03:43:24.760Z,6.50
2018-09-20T03:45:53.477Z,6.33
2018-09-20T03:48:22.101Z,5.80
2018-09-20T03:50:50.753Z,5.67
2018-09-20T03:53:19.439Z,5.53
2018-09-20T03:55:48.138Z,5.77
2018-09-20T03:58:16.810Z,5.90
2018-09-20T04:00:45.430Z,6.00
2018-09-20T04:03:14.219Z,5.73
2018-09-20T04:05:42.958Z,6.00
2018-09-20T04:08:11.661Z,6.17
2018-09-20T04:10:40.406Z,5.63
2018-09-20T04:13:09.207Z,6.70
2018-09-20T04:15:37.962Z,6.87
2018-09-20T04:18:06.613Z,7.00
2018-09-20T04:20:35.378Z,6.83
2018-09-20T04:23:04.117Z,6.20
2018-09-20T04:25:32.847Z,6.87
2018-09-20T04:28:01.517Z,5.93
2018-09-20T04:30:30.223Z,6.30
2018-09-20T04:32:58.917Z,5.83
2018-09-20T04:35:27.651Z,6.10
2018-09-20T04:37:56.382Z,6.13
2018-09-20T04:40:25.121Z,5.90
2018-09-20T04:42:53.754Z,6.23
2018-09-20T04:45:22.429Z,6.43
2018-09-20T04:47:51.137Z,6.73
2018-09-20T04:50:19.704Z,6.50
2018-09-20T04:52:48.373Z,6.77
2018-09-20T04:55:17.053Z,6.63
2018-09-20T04:57:45.739Z,6.80
2018-09-20T05:00:14.445Z,7.40
2018-09-20T05:02:43.204Z,7.13
2018-09-20T05:05:11.818Z,6.97
2018-09-20T05:07:41.648Z,7.00
2018-09-20T05:10:10.316Z,6.50
2018-09-20T05:12:39.002Z,6.23
2018-09-20T05:15:07.764Z,5.97
2018-09-20T05:17:36.537Z,6.53
2018-09-20T05:20:05.239Z,6.67
2018-09-20T05:22:33.913Z,6.57
2018-09-20T05:25:02.598Z,6.63
2018-09-20T05:27:31.235Z,6.53
2018-09-20T05:29:59.849Z,6.30
2018-09-20T05:32:28.556Z,6.47
2018-09-20T05:34:57.254Z,6.23
2018-09-20T05:37:25.908Z,7.07
2018-09-20T05:39:54.518Z,6.53
2018-09-20T05:42:23.136Z,6.03
2018-09-20T05:44:52.029Z,6.17
2018-09-20T05:47:20.702Z,6.80
2018-09-20T05:49:49.375Z,6.20
2018-09-20T05:52:17.977Z,5.93
2018-09-20T05:54:46.634Z,6.63
2018-09-20T05:57:15.313Z,6.63
2018-09-20T05:59:43.996Z,6.17
2018-09-20T06:02:12.640Z,6.10
2018-09-20T06:04:41.346Z,6.20
2018-09-20T06:07:10.012Z,5.80
2018-09-20T06:09:38.770Z,6.10
2018-09-20T06:12:07.450Z,6.50
2018-09-20T06:14:36.077Z,5.63
2018-09-20T06:17:04.928Z,6.30
2018-09-20T06:19:33.590Z,5.97
2018-09-20T06:22:02.230Z,6.40
2018-09-20T06:24:30.941Z,6.63
2018-09-20T06:27:00.426Z,6.33
2018-09-20T06:29:29.026Z,6.53
2018-09-20T06:31:57.701Z,6.80
2018-09-20T06:34:27.427Z,7.60
2018-09-20T06:36:56.627Z,7.00
2018-09-20T06:39:25.364Z,6.60
2018-09-20T06:41:53.976Z,7.00
2018-09-20T06:44:22.685Z,6.07
2018-09-20T06:46:51.419Z,6.87
2018-09-20T06:49:20.161Z,6.67
2018-09-20T06:51:48.838Z,6.73
2018-09-20T06:54:17.514Z,7.00
2018-09-20T06:56:46.250Z,7.40
2018-09-20T06:59:14.958Z,7.13
2018-09-20T07:01:43.642Z,7.20
2018-09-20T07:04:12.357Z,6.93
2018-09-20T07:06:41.023Z,7.10
2018-09-20T07:09:11.790Z,7.43
2018-09-20T07:11:40.751Z,7.10
2018-09-20T07:14:09.467Z,7.50
2018-09-20T07:16:38.175Z,7.40
2018-09-20T07:19:06.935Z,7.27
2018-09-20T07:21:35.658Z,6.53
2018-09-20T07:24:04.410Z,7.53
2018-09-20T07:26:33.030Z,6.60
2018-09-20T07:29:04.389Z,6.83
2018-09-20T07:31:33.086Z,7.63
2018-09-20T07:34:01.736Z,7.00
2018-09-20T07:36:31.110Z,6.87
2018-09-20T07:38:59.780Z,7.70
2018-09-20T07:41:28.366Z,8.30
2018-09-20T07:43:56.975Z,7.60
2018-09-20T07:46:25.620Z,7.57
2018-09-20T07:48:54.361Z,7.90
2018-09-20T07:51:22.970Z,7.83
2018-09-20T07:53:51.709Z,7.30
2018-09-20T07:56:20.420Z,7.30
2018-09-20T07:58:49.124Z,6.63
2018-09-20T08:01:17.688Z,6.63
2018-09-20T08:03:46.411Z,6.80
2018-09-20T08:06:15.169Z,6.03
2018-09-20T08:08:43.809Z,5.73
2018-09-20T08:11:12.507Z,6.80
2018-09-20T08:13:41.153Z,6.20
2018-09-20T08:16:09.847Z,6.13
2018-09-20T08:18:38.546Z,5.87
2018-09-20T08:21:07.652Z,6.07
2018-09-20T08:23:36.298Z,5.37
2018-09-20T08:26:04.994Z,5.30
2018-09-20T08:28:33.670Z,5.87
2018-09-20T08:31:02.462Z,5.93
2018-09-20T08:33:31.054Z,5.17
2018-09-20T08:35:59.700Z,5.50
2018-09-20T08:38:28.446Z,4.67
2018-09-20T08:40:57.214Z,4.77
2018-09-20T08:43:25.923Z,4.77
2018-09-20T08:45:54.648Z,4.60
2018-09-20T08:48:23.298Z,4.37
2018-09-20T08:50:52.000Z,4.03
2018-09-20T08:53:20.751Z,4.10
2018-09-20T08:55:49.406Z,4.40
2018-09-20T08:58:18.108Z,4.00
2018-09-20T09:00:46.818Z,3.87
2018-09-20T09:03:15.429Z,3.93
2018-09-20T09:05:44.159Z,3.53
2018-09-20T09:08:12.777Z,3.80
2018-09-20T09:10:41.530Z,3.70
2018-09-20T09:13:10.385Z,3.60
2018-09-20T09:15:39.090Z,3.23
2018-09-20T09:18:07.855Z,3.33
2018-09-20T09:20:36.462Z,3.33
2018-09-20T09:23:05.154Z,3.47
2018-09-20T09:25:33.831Z,3.40
2018-09-20T09:28:02.502Z,3.70
2018-09-20T09:30:31.157Z,3.80
2018-09-20T09:32:59.846Z,3.60
2018-09-20T09:35:28.611Z,3.80
2018-09-20T09:37:57.227Z,3.70
2018-09-20T09:40:26.493Z,4.10
2018-09-20T09:42:55.221Z,4.10
2018-09-20T09:45:23.883Z,3.70
2018-09-20T09:47:52.499Z,4.00
2018-09-20T09:50:21.111Z,3.97
2018-09-20T09:52:49.779Z,3.80
2018-09-20T09:55:18.475Z,3.90
2018-09-20T09:57:55.274Z,3.60
2018-09-20T10:00:29.406Z,3.67
2018-09-20T10:02:59.282Z,4.10
2018-09-20T10:05:28.302Z,4.33
2018-09-20T10:07:58.516Z,4.10
2018-09-20T10:10:27.107Z,3.87
2018-09-20T10:12:55.805Z,4.00
2018-09-20T10:15:24.497Z,4.23
2018-09-20T10:17:53.082Z,4.00
2018-09-20T10:20:21.828Z,3.80
2018-09-20T10:22:51.821Z,4.90
2018-09-20T10:25:20.969Z,3.67
2018-09-20T10:27:49.572Z,3.50
2018-09-20T10:30:18.536Z,3.73
2018-09-20T10:32:47.873Z,3.47
2018-09-20T10:35:16.825Z,3.70
2018-09-20T10:37:45.481Z,3.80
2018-09-20T10:40:31.289Z,3.33
2018-09-20T10:43:01.397Z,3.60
2018-09-20T10:45:30.733Z,3.37
2018-09-20T10:48:05.442Z,3.80
2018-09-20T10:50:34.378Z,3.80
2018-09-20T10:53:03.383Z,3.97
2018-09-20T10:55:32.337Z,3.70
2018-09-20T10:58:01.714Z,3.70
2018-09-20T11:00:30.606Z,3.77
2018-09-20T11:02:59.650Z,3.50
2018-09-20T11:05:28.253Z,3.70
2018-09-20T11:07:57.067Z,4.03
2018-09-20T11:10:25.826Z,3.80
2018-09-20T11:12:54.405Z,3.53
2018-09-20T11:15:23.311Z,3.73
2018-09-20T11:17:51.998Z,3.70
2018-09-20T11:20:20.645Z,3.60
2018-09-20T11:22:49.307Z,3.47
2018-09-20T11:25:18.016Z,3.83
2018-09-20T11:27:46.937Z,3.70
2018-09-20T11:30:15.636Z,3.57
2018-09-20T11:32:44.280Z,3.87
2018-09-20T11:35:13.614Z,3.80
2018-09-20T11:37:42.481Z,3.37
2018-09-20T11:40:12.056Z,3.33
2018-09-20T11:42:40.867Z,3.23
2018-09-20T11:45:09.573Z,3.70
2018-09-20T11:47:38.157Z,3.60
2018-09-20T11:50:09.964Z,3.90
2018-09-20T11:52:40.209Z,3.40
2018-09-20T11:55:08.947Z,3.53
2018-09-20T11:57:38.554Z,3.00
2018-09-20T12:00:07.855Z,3.40
2018-09-20T12:02:37.157Z,3.00
2018-09-20T12:05:06.241Z,3.30
2018-09-20T12:07:36.206Z,3.30
2018-09-20T12:10:05.941Z,3.43
2018-09-20T12:12:34.593Z,3.43
2018-09-20T12:15:03.528Z,3.60
2018-09-20T12:17:32.627Z,3.20
2018-09-20T12:20:01.894Z,3.37
2018-09-20T12:22:31.017Z,3.10
2018-09-20T12:25:01.250Z,3.57
2018-09-20T12:27:32.112Z,3.57
2018-09-20T12:30:00.818Z,3.40
2018-09-20T12:32:30.284Z,3.67
2018-09-20T12:34:59.000Z,3.30
2018-09-20T12:37:33.154Z,3.63
2018-09-20T12:40:02.584Z,3.10
2018-09-20T12:42:31.565Z,2.93
2018-09-20T12:45:02.439Z,3.03
2018-09-20T12:47:32.844Z,3.27
2018-09-20T12:50:02.405Z,2.97
2018-09-20T12:52:31.692Z,3.07
2018-09-20T12:55:00.702Z,3.10
2018-09-20T12:57:29.409Z,3.00
2018-09-20T12:59:59.933Z,3.20
2018-09-20T13:02:29.848Z,3.10
2018-09-20T13:04:59.146Z,3.37
2018-09-20T13:07:27.761Z,3.27
2018-09-20T13:09:56.632Z,3.00
2018-09-20T13:12:26.651Z,2.63
2018-09-20T13:14:55.605Z,2.80
2018-09-20T13:17:24.716Z,2.77
2018-09-20T13:19:54.214Z,3.00
2018-09-20T13:22:23.469Z,2.80
2018-09-20T13:24:52.092Z,2.90
2018-09-20T13:27:20.839Z,2.83
2018-09-20T13:29:50.105Z,3.30
2018-09-20T13:32:18.780Z,2.97
2018-09-20T13:34:47.712Z,2.90
2018-09-20T13:37:17.023Z,2.90
2018-09-20T13:39:45.697Z,3.27
2018-09-20T13:42:16.223Z,3.27
2018-09-20T13:44:45.564Z,2.70
2018-09-20T13:47:15.196Z,3.00
2018-09-20T13:49:45.308Z,3.20
2018-09-20T13:52:14.657Z,3.03
2018-09-20T13:54:43.518Z,3.30
2018-09-20T13:57:12.492Z,3.20
2018-09-20T13:59:41.729Z,2.93
2018-09-20T14:02:16.807Z,2.87
2018-09-20T14:04:45.597Z,3.27
2018-09-20T14:07:14.261Z,3.47
2018-09-20T14:09:43.069Z,3.07
2018-09-20T14:12:11.754Z,3.27
2018-09-20T14:14:40.474Z,3.40
2018-09-20T14:17:09.155Z,3.23
2018-09-20T14:19:37.839Z,3.23
2018-09-20T14:22:06.624Z,3.10
2018-09-20T14:24:36.239Z,3.23
2018-09-20T14:27:05.090Z,3.40
2018-09-20T14:29:33.791Z,3.10
2018-09-20T14:32:02.452Z,3.10
2018-09-20T14:34:36.882Z,3.30
2018-09-20T14:37:06.364Z,3.40
2018-09-20T14:39:43.005Z,3.00
2018-09-20T14:42:12.058Z,3.10
2018-09-20T14:44:40.755Z,3.30
2018-09-20T14:47:09.724Z,3.43
2018-09-20T14:49:41.159Z,3.30
2018-09-20T14:52:10.001Z,3.50
2018-09-20T14:54:39.033Z,3.27
2018-09-20T14:57:07.869Z,3.47
2018-09-20T14:59:36.646Z,3.27
2018-09-20T15:02:05.433Z,3.10
2018-09-20T15:04:34.117Z,3.03
2018-09-20T15:07:02.877Z,2.97
2018-09-20T15:09:31.482Z,2.83
2018-09-20T15:12:00.283Z,3.40
2018-09-20T15:14:29.897Z,3.40
2018-09-20T15:16:58.656Z,3.13
2018-09-20T15:19:27.687Z,3.53
2018-09-20T15:21:58.371Z,3.10
2018-09-20T15:24:27.313Z,3.30
2018-09-20T15:27:04.999Z,3.20
2018-09-20T15:29:35.194Z,3.10
2018-09-20T15:32:03.848Z,3.00
2018-09-20T15:34:32.503Z,3.13
2018-09-20T15:37:01.889Z,2.90
2018-09-20T15:39:31.585Z,3.00
2018-09-20T15:42:00.785Z,3.17
2018-09-20T15:44:30.800Z,3.10
2018-09-20T15:47:00.795Z,3.47
2018-09-20T15:49:29.568Z,3.37
2018-09-20T15:51:58.487Z,3.10
2018-09-20T15:54:28.051Z,3.47
2018-09-20T15:57:01.863Z,2.80
2018-09-20T15:59:30.617Z,3.13
2018-09-20T16:01:59.277Z,2.97
2018-09-20T16:04:28.263Z,2.60
2018-09-20T16:06:56.901Z,3.20
2018-09-20T16:09:25.894Z,3.43
2018-09-20T16:11:56.735Z,3.10
2018-09-20T16:14:25.913Z,3.20
2018-09-20T16:16:54.703Z,2.97
2018-09-20T16:19:24.530Z,3.13
2018-09-20T16:21:53.291Z,3.43
2018-09-20T16:24:22.016Z,3.17
2018-09-20T16:26:50.914Z,2.97
2018-09-20T16:29:33.920Z,2.93
2018-09-20T16:35:17.125Z,3.10
2018-09-20T16:38:01.254Z,2.80
2018-09-20T16:40:32.779Z,3.17
2018-09-20T16:43:07.843Z,2.83
2018-09-20T16:45:37.181Z,3.10
2018-09-20T16:48:06.061Z,3.10
2018-09-20T16:50:34.749Z,3.40
2018-09-20T16:53:04.203Z,3.23
2018-09-20T16:55:33.243Z,3.00
2018-09-20T16:58:01.970Z,2.90
2018-09-20T17:00:30.610Z,3.20
2018-09-20T17:02:59.289Z,3.13
2018-09-20T17:05:28.019Z,3.30
2018-09-20T17:07:56.762Z,3.47
2018-09-20T17:10:25.792Z,3.03
2018-09-20T17:12:54.463Z,3.90
2018-09-20T17:15:23.393Z,3.47
2018-09-20T17:17:52.343Z,3.13
2018-09-20T17:20:21.079Z,3.40
2018-09-20T17:22:49.987Z,3.37
2018-09-20T17:25:19.109Z,3.00
2018-09-20T17:27:47.723Z,2.93
2018-09-20T17:30:16.457Z,3.73
2018-09-20T17:32:45.076Z,3.33
2018-09-20T17:35:14.899Z,3.40
2018-09-20T17:37:45.486Z,3.63
2018-09-20T17:40:15.437Z,3.70
2018-09-20T17:42:45.690Z,3.67
2018-09-20T17:45:14.512Z,3.63
2018-09-20T17:47:43.323Z,3.63
2018-09-20T17:50:12.137Z,3.53
2018-09-20T17:52:41.267Z,3.57
2018-09-20T17:55:10.598Z,3.40
2018-09-20T17:57:40.461Z,4.43
2018-09-20T18:00:09.300Z,4.20
2018-09-20T18:02:37.966Z,3.87
2018-09-20T18:05:06.665Z,3.67
2018-09-20T18:07:35.333Z,3.50
2018-09-20T18:10:04.467Z,3.37
2018-09-20T18:12:33.335Z,3.83
2018-09-20T18:15:02.096Z,3.90
2018-09-20T18:17:30.622Z,3.87
2018-09-20T18:19:59.491Z,3.67
2018-09-20T18:22:28.147Z,4.20
2018-09-20T18:24:58.194Z,4.43
2018-09-20T18:27:27.109Z,4.33
2018-09-20T18:29:56.019Z,4.33
2018-09-20T18:32:24.943Z,3.90
2018-09-20T18:34:53.583Z,4.70
2018-09-20T18:37:25.296Z,4.07
2018-09-20T18:39:55.528Z,4.47
2018-09-20T18:42:24.287Z,4.40
2018-09-20T18:44:53.399Z,5.07
2018-09-20T18:47:22.803Z,4.20
2018-09-20T18:49:51.866Z,4.60
2018-09-20T18:52:21.887Z,4.27
2018-09-20T18:54:52.835Z,4.60
2018-09-20T18:57:21.628Z,4.10
2018-09-20T18:59:51.464Z,4.20
2018-09-20T19:02:20.395Z,4.03
2018-09-20T19:04:50.694Z,3.90
2018-09-20T19:07:19.464Z,4.30
2018-09-20T19:09:48.681Z,3.80
2018-09-20T19:12:18.409Z,4.30
2018-09-20T19:14:47.903Z,3.70
2018-09-20T19:17:16.634Z,3.97
2018-09-20T19:19:47.085Z,3.87
2018-09-20T19:22:16.734Z,4.00
2018-09-20T19:24:46.282Z,4.20
2018-09-20T19:27:15.716Z,4.67
2018-09-20T19:29:46.685Z,4.00
2018-09-20T19:32:15.987Z,4.20
2018-09-20T19:34:46.087Z,4.63
2018-09-20T19:37:15.871Z,4.07
2018-09-20T19:39:44.898Z,4.60
2018-09-20T19:42:14.136Z,4.10
2018-09-20T19:44:45.024Z,4.57
2018-09-20T19:47:14.062Z,4.47
2018-09-20T19:49:43.370Z,4.17
2018-09-20T19:52:12.314Z,4.90
2018-09-20T19:54:42.133Z,4.73
2018-09-20T19:57:11.499Z,4.17
2018-09-20T19:59:40.783Z,4.40
2018-09-20T20:02:11.336Z,4.53
2018-09-20T20:04:40.792Z,4.60
2018-09-20T20:07:09.899Z,4.93
2018-09-20T20:09:39.089Z,4.53
2018-09-20T20:12:07.923Z,4.13
2018-09-20T20:14:36.661Z,4.40
2018-09-20T20:17:05.647Z,4.50
2018-09-20T20:19:34.584Z,4.70
2018-09-20T20:22:03.199Z,4.97
2018-09-20T20:24:32.189Z,4.57
2018-09-20T20:27:01.659Z,5.50
2018-09-20T20:29:30.921Z,5.33
2018-09-20T20:32:00.579Z,5.00
2018-09-20T20:34:31.241Z,4.57
2018-09-20T20:37:00.253Z,4.60
2018-09-20T20:39:29.320Z,4.57
2018-09-20T20:41:58.357Z,5.40
2018-09-20T20:44:28.814Z,4.63
2018-09-20T20:46:57.573Z,5.00
2018-09-20T20:49:28.097Z,4.47
2018-09-20T20:51:57.747Z,4.30
2018-09-20T20:54:26.527Z,4.70
2018-09-20T20:56:55.485Z,5.30
2018-09-20T20:59:24.229Z,5.40
2018-09-20T21:01:53.091Z,4.80
2018-09-20T21:04:21.996Z,4.70
2018-09-20T21:06:50.975Z,4.93
2018-09-20T21:09:19.669Z,4.57
2018-09-20T21:11:48.724Z,5.00
2018-09-20T21:14:17.476Z,4.53
2018-09-20T21:16:46.420Z,4.87
2018-09-20T21:19:15.321Z,5.30
2018-09-20T21:21:43.989Z,5.10
2018-09-20T21:24:12.915Z,4.53
2018-09-20T21:26:41.533Z,4.97
2018-09-20T21:29:10.195Z,4.47
2018-09-20T21:31:38.977Z,4.77
2018-09-20T21:34:07.625Z,5.00
2018-09-20T21:36:36.297Z,4.83
2018-09-20T21:39:08.397Z,4.73
2018-09-20T21:41:37.091Z,4.93
2018-09-20T21:44:05.810Z,4.90
2018-09-20T21:46:34.441Z,4.70
2018-09-20T21:49:03.034Z,4.80
2018-09-20T21:51:31.853Z,4.87
2018-09-20T21:54:00.860Z,5.30
2018-09-20T21:56:29.946Z,5.33
2018-09-20T21:58:58.547Z,5.03
2018-09-20T22:01:27.214Z,5.13
2018-09-20T22:03:55.885Z,5.33
2018-09-20T22:06:24.595Z,5.00
2018-09-20T22:08:53.618Z,4.93
2018-09-20T22:11:22.282Z,4.70
2018-09-20T22:13:51.282Z,5.00
2018-09-20T22:16:20.071Z,5.03
2018-09-20T22:18:48.680Z,5.23
2018-09-20T22:21:17.448Z,5.50
2018-09-20T22:23:46.095Z,5.33
2018-09-20T22:26:14.725Z,5.63
2018-09-20T22:28:43.593Z,4.87
2018-09-20T22:31:12.573Z,4.93
2018-09-20T22:33:41.235Z,5.53
2018-09-20T22:36:09.934Z,5.13
2018-09-20T22:38:38.890Z,5.60
2018-09-20T22:41:07.612Z,5.00
2018-09-20T22:43:36.289Z,5.47
2018-09-20T22:46:04.942Z,5.27
2018-09-20T22:48:33.567Z,5.20
2018-09-20T22:51:02.222Z,5.70
2018-09-20T22:53:30.969Z,5.27
2018-09-20T22:55:59.685Z,5.40
2018-09-20T22:58:28.955Z,5.47
2018-09-20T23:00:58.290Z,5.60
2018-09-20T23:03:27.179Z,5.53
2018-09-20T23:05:55.996Z,5.57
2018-09-20T23:08:24.603Z,5.77
2018-09-20T23:10:53.385Z,5.27
2018-09-20T23:13:22.279Z,5.63
2018-09-20T23:15:50.946Z,5.87
2018-09-20T23:18:19.657Z,5.70
2018-09-20T23:20:48.402Z,5.73
2018-09-20T23:23:16.999Z,5.83
2018-09-20T23:25:45.661Z,6.00
2018-09-20T23:28:14.311Z,5.87
2018-09-20T23:30:43.121Z,6.43
2018-09-20T23:33:11.745Z,5.50
2018-09-20T23:35:40.677Z,6.23
2018-09-20T23:38:09.390Z,5.40
2018-09-20T23:40:38.453Z,5.67
2018-09-20T23:43:07.069Z,5.30
2018-09-20T23:45:35.649Z,5.33
2018-09-20T23:48:04.352Z,5.67
2018-09-20T23:50:33.395Z,5.77
2018-09-20T23:53:02.134Z,5.67
2018-09-20T23:55:30.730Z,5.40
2018-09-20T23:57:59.649Z,5.57
